Map

Track Data

SID SEASON NUMBER BASIN SUBBASIN NAME ISO_TIME NATURE LAT LON WMO_WIND WMO_PRES WMO_AGENCY TRACK_TYPE DIST2LAND LANDFALL IFLAG USA_AGENCY USA_ATCF_ID USA_LAT USA_LON USA_RECORD USA_STATUS USA_WIND USA_PRES USA_SSHS USA_R34_NE USA_R34_SE USA_R34_SW USA_R34_NW USA_R50_NE USA_R50_SE USA_R50_SW USA_R50_NW USA_R64_NE USA_R64_SE USA_R64_SW USA_R64_NW USA_POCI USA_ROCI USA_RMW USA_EYE TOKYO_LAT TOKYO_LON TOKYO_GRADE TOKYO_WIND TOKYO_PRES TOKYO_R50_DIR TOKYO_R50_LONG TOKYO_R50_SHORT TOKYO_R30_DIR TOKYO_R30_LONG TOKYO_R30_SHORT TOKYO_LAND CMA_LAT CMA_LON CMA_CAT CMA_WIND CMA_PRES HKO_LAT HKO_LON HKO_CAT HKO_WIND HKO_PRES NEWDELHI_LAT NEWDELHI_LON NEWDELHI_GRADE NEWDELHI_WIND NEWDELHI_PRES NEWDELHI_CI NEWDELHI_DP NEWDELHI_POCI REUNION_LAT REUNION_LON REUNION_TYPE REUNION_WIND REUNION_PRES REUNION_TNUM REUNION_CI REUNION_RMW REUNION_R34_NE REUNION_R34_SE REUNION_R34_SW REUNION_R34_NW REUNION_R50_NE REUNION_R50_SE REUNION_R50_SW REUNION_R50_NW REUNION_R64_NE REUNION_R64_SE REUNION_R64_SW REUNION_R64_NW BOM_LAT BOM_LON BOM_TYPE BOM_WIND BOM_PRES BOM_TNUM BOM_CI BOM_RMW BOM_R34_NE BOM_R34_SE BOM_R34_SW BOM_R34_NW BOM_R50_NE BOM_R50_SE BOM_R50_SW BOM_R50_NW BOM_R64_NE BOM_R64_SE BOM_R64_SW BOM_R64_NW BOM_ROCI BOM_POCI BOM_EYE BOM_POS_METHOD BOM_PRES_METHOD NADI_LAT NADI_LON NADI_CAT NADI_WIND NADI_PRES WELLINGTON_LAT WELLINGTON_LON WELLINGTON_WIND WELLINGTON_PRES DS824_LAT DS824_LON DS824_STAGE DS824_WIND DS824_PRES TD9636_LAT TD9636_LON TD9636_STAGE TD9636_WIND TD9636_PRES TD9635_LAT TD9635_LON TD9635_WIND TD9635_PRES TD9635_ROCI NEUMANN_LAT NEUMANN_LON NEUMANN_CLASS NEUMANN_WIND NEUMANN_PRES MLC_LAT MLC_LON MLC_CLASS MLC_WIND MLC_PRES USA_GUST BOM_GUST BOM_GUST_PER REUNION_GUST REUNION_GUST_PER USA_SEAHGT USA_SEARAD_NE USA_SEARAD_SE USA_SEARAD_SW USA_SEARAD_NW STORM_SPEED STORM_DIR
1924118N10096 1924 8 NI BB NOT_NAMED 1924-04-27 00:00:00 TS 9.60000 96.0000 main 264 264 _________O____ -1 9.60000 96.0000 TC 30 2 299
1924118N10096 1924 8 NI BB NOT_NAMED 1924-04-27 03:00:00 TS 9.65835 95.8933 main 278 278 _________PO___ -1 9.68752 95.8400 TC 30 9.60000 96.0000 1 3 306
1924118N10096 1924 8 NI BB NOT_NAMED 1924-04-27 06:00:00 TS 9.77127 95.7669 main 292 292 _________OP___ -1 9.80000 95.7000 TC 30 9.72818 95.8673 1 3 317
1924118N10096 1924 8 NI BB NOT_NAMED 1924-04-27 09:00:00 TS 9.90930 95.6547 main 306 306 _________PP___ -1 9.94999 95.5925 TC 30 9.85506 95.7376 1 3 323
1924118N10096 1924 8 NI BB NOT_NAMED 1924-04-27 12:00:00 TS 10.0397 95.5571 main 318 318 _________OP___ -1 10.1000 95.5000 TC 30 9.97941 95.6141 1 3 320
1924118N10096 1924 8 NI BB NOT_NAMED 1924-04-27 15:00:00 TS 10.1500 95.4500 main 328 328 _________PO___ -1 10.2000 95.4000 TC 30 10.1000 95.5000 1 3 317
1924118N10096 1924 8 NI BB NOT_NAMED 1924-04-27 18:00:00 TS 10.2584 95.3484 main 350 350 _________OP___ -1 10.3000 95.3000 TC 30 10.2168 95.3968 1 3 320
1924118N10096 1924 8 NI BB NOT_NAMED 1924-04-27 21:00:00 TS 10.3850 95.2500 main 361 361 _________PP___ -1 10.4350 95.2000 TC 30 10.3350 95.2999 1 3 325
1924118N10096 1924 8 NI BB NOT_NAMED 1924-04-28 00:00:00 TS 10.5303 95.1515 main 361 361 _________OP___ -1 10.6000 95.1000 TC 30 10.4606 95.2030 1 4 329
1924118N10096 1924 8 NI BB NOT_NAMED 1924-04-28 03:00:00 TS 10.7000 95.0537 main 372 372 _________PO___ -1 10.8000 95.0075 TC 30 10.6000 95.1000 1 4 330
1924118N10096 1924 8 NI BB NOT_NAMED 1924-04-28 06:00:00 TS 10.8803 94.9431 main 395 395 _________OP___ -1 11.0000 94.9000 TC 30 10.7606 94.9862 1 4 325
1924118N10096 1924 8 NI BB NOT_NAMED 1924-04-28 09:00:00 TS 11.0462 94.8112 main 406 406 _________PP___ -1 11.1575 94.7575 TC 30 10.9350 94.8650 1 4 320
1924118N10096 1924 8 NI BB NOT_NAMED 1924-04-28 12:00:00 TS 11.2084 94.6681 main 420 420 _________OP___ -1 11.3000 94.6000 TC 30 11.1169 94.7362 1 4 319
1924118N10096 1924 8 NI BB NOT_NAMED 1924-04-28 15:00:00 TS 11.3712 94.5250 main 439 438 _________PO___ -1 11.4425 94.4500 TC 30 11.3000 94.6000 1 4 319
1924118N10096 1924 8 NI BB NOT_NAMED 1924-04-28 18:00:00 TS 11.5416 94.3746 main 448 447 _________OP___ -1 11.6000 94.3000 TC 30 11.4831 94.4491 1 5 320
1924118N10096 1924 8 NI BB NOT_NAMED 1924-04-28 21:00:00 TS 11.7325 94.2175 main 456 436 _________PP___ -1 11.8000 94.1425 TC 30 11.6650 94.2926 1 5 322
1924118N10096 1924 8 NI BB NOT_NAMED 1924-04-29 00:00:00 TS 11.9197 94.0699 main 436 416 _________OP___ -1 12.0000 94.0000 TC 30 11.8394 94.1397 1 4 323
1924118N10096 1924 8 NI BB NOT_NAMED 1924-04-29 03:00:00 TS 12.0825 93.9462 main 417 406 _________PO___ -1 12.1650 93.8925 TC 30 12.0000 94.0000 1 4 324
1924118N10096 1924 8 NI BB NOT_NAMED 1924-04-29 06:00:00 TS 12.2298 93.8347 main 408 388 _________OP___ -1 12.3000 93.8000 TC 30 12.1597 93.8694 1 4 322
1924118N10096 1924 8 NI BB NOT_NAMED 1924-04-29 09:00:00 TS 12.3625 93.7200 main 388 379 _________PP___ -1 12.4225 93.6850 TC 30 12.3025 93.7550 1 3 319
1924118N10096 1924 8 NI BB NOT_NAMED 1924-04-29 12:00:00 TS 12.4595 93.6316 main 379 379 _________OP___ -1 12.5000 93.6000 TC 30 12.4191 93.6631 1 2 320
1924118N10096 1924 8 NI BB NOT_NAMED 1924-04-29 15:00:00 TS 12.5075 93.5925 main 379 379 _________PO___ -1 12.5150 93.5850 TC 31 12.5000 93.6000 1 1 328
1924118N10096 1924 8 NI BB NOT_NAMED 1924-04-29 18:00:00 TS 12.5180 93.5856 main 379 379 _________OP___ -1 12.5000 93.6000 TC 32 12.5359 93.5712 1 0 0
1924118N10096 1924 8 NI BB NOT_NAMED 1924-04-29 21:00:00 TS 12.5187 93.5850 main 379 379 _________PP___ -1 12.5000 93.6000 TC 33 12.5375 93.5699 1 0 0
1924118N10096 1924 8 NI BB NOT_NAMED 1924-04-30 00:00:00 TS 12.5101 93.5919 main 379 379 _________OP___ -1 12.5000 93.6000 TC 34 12.5203 93.5837 1 0 0
1924118N10096 1924 8 NI BB NOT_NAMED 1924-04-30 03:00:00 TS 12.5000 93.6000 main 379 379 _________PO___ -1 12.5000 93.6000 TC 36 12.5000 93.6000 2 0 0
1924118N10096 1924 8 NI BB NOT_NAMED 1924-04-30 06:00:00 TS 12.5000 93.6000 main 379 379 _________OP___ -1 12.5000 93.6000 TC 39 12.5000 93.6000 2 0 0
1924118N10096 1924 8 NI BB NOT_NAMED 1924-04-30 09:00:00 TS 12.5000 93.6000 main 379 379 _________PP___ -1 12.5000 93.6000 TC 42 12.5000 93.6000 2 0 0
1924118N10096 1924 8 NI BB NOT_NAMED 1924-04-30 12:00:00 TS 12.5000 93.6000 main 379 379 _________OP___ -1 12.5000 93.6000 TC 45 12.5000 93.6000 2 0 0
1924118N10096 1924 8 NI BB NOT_NAMED 1924-04-30 15:00:00 TS 12.5000 93.6000 main 379 379 _________PO___ -1 12.5000 93.6000 TC 45 12.5000 93.6000 3 0 0
1924118N10096 1924 8 NI BB NOT_NAMED 1924-04-30 18:00:00 TS 12.4837 93.5960 main 379 379 _________OP___ -1 12.5000 93.6000 TC 45 12.4675 93.5919 3 0 0
1924118N10096 1924 8 NI BB NOT_NAMED 1924-04-30 21:00:00 TS 12.4587 93.5888 main 379 379 _________PP___ -1 12.4775 93.5925 TC 45 12.4400 93.5851 3 0 0
1924118N10096 1924 8 NI BB NOT_NAMED 1924-05-01 00:00:00 TS 12.4712 93.5928 main 379 379 _________OP___ -1 12.5000 93.6000 TC 45 12.4425 93.5857 3 1 21
1924118N10096 1924 8 NI BB NOT_NAMED 1924-05-01 03:00:00 TS 12.5563 93.6213 main 368 355 _________PO___ -1 12.6125 93.6425 TC 45 12.5000 93.6000 3 3 16
1924118N10096 1924 8 NI BB NOT_NAMED 1924-05-01 06:00:00 TS 12.7213 93.6658 main 355 333 _________OP___ -1 12.8000 93.7000 TC 45 12.6425 93.6316 3 4 13
1924118N10096 1924 8 NI BB NOT_NAMED 1924-05-01 09:00:00 TS 12.9413 93.7137 main 333 298 _________PP___ -1 13.0425 93.7500 TC 45 12.8400 93.6775 3 5 12
1924118N10096 1924 8 NI BB NOT_NAMED 1924-05-01 12:00:00 TS 13.1838 93.7673 main 298 276 _________OP___ -1 13.3000 93.8000 TC 45 13.0675 93.7347 3 5 13
1924118N10096 1924 8 NI BB NOT_NAMED 1924-05-01 15:00:00 TS 13.4037 93.8213 main 276 252 _________PO___ -1 13.5075 93.8425 TC 41 13.3000 93.8000 3 4 15
1924118N10096 1924 8 NI BB NOT_NAMED 1924-05-01 18:00:00 TS 13.5957 93.8832 main 252 227 _________OP___ -1 13.7000 93.9000 TC 37 13.5175 93.8706 3 4 20
1924118N10096 1924 8 NI BB NOT_NAMED 1924-05-01 21:00:00 TS 13.7910 93.9629 main 227 206 _________PP___ -1 13.8975 93.9900 TC 33 13.7200 93.9449 3 4 23
1924118N10096 1924 8 NI BB NOT_NAMED 1924-05-02 00:00:00 TS 13.9750 94.0479 main 206 193 _________OP___ -1 14.1000 94.1000 TC 30 13.9125 94.0218 3 3 23
1924118N10096 1924 8 NI BB NOT_NAMED 1924-05-02 03:00:00 NR 14.1000 94.1000 main 193 __________O___ -1 TC 14.1000 94.1000 1 3 24

About IBTrACS Database

This database is a web-friendly format of International Best Track Archive for Climate Stewardship (IBTrACS), a global best track data archive curated by NOAA dating back to 1842.

Updated: 2021-10-27